Airfield :
LOGIN :

Register | Disclaimer

   EN    FR    IT 

 










Legend :    VFR   Marginal VFR   IFR   Intensive IFR   Very Intensive IFR
Visi :
Ceiling :
>= 8 km
>= 3000ft
5 to 8 km
1000 to 3000 ft
1500m to 5 km
500 to 1000 ft
800 to 1500m
200 to 500 ft
< 800m
< 200 ft
Symbols :   Thunderstorms  Fog  Heavy snow  Heavy precipitations  Wind > 20 kt
SIGMETs :     Misc.  Thunderstorms  Icing  Turbulence  Mountain Waves  Volcanic Ashes






- Airport Elevation : 287 ft
- IATA code : TOE


DTTZ - Nefta - Tozeur

CURRENT METAR :
  • 092100Z 10017KT CAVOK 31/18 Q1013

EXPIRED METARs :
  • 092000Z 09016KT 070V130 CAVOK 33/17 Q1012
  • 091900Z 10006KT CAVOK 36/10 Q1011

TAF TAF DTTZ
Valid from the 09 at 18:00 until the 10 at 18:00 UTC


091700Z 0918/1018 12008KT CAVOK
BECMG 0918/0920 09019KT
BECMG 1004/1006 09010KT
BECMG 1012/1014 VRB04KT



MET'MAP, your aeronautical weather chart ! - Copyright ORBIFLY December 2007 - Disclaimer

ORBIFLY MET'MAP TEAM :

Programming & Development : Alexandra Zaïnal
Concept & original design : Baudouin d'Aumeries
Assistance for programming : Marc-Olivier Méhu
Technical & hardware support : Manuel Goepfert

Contact : metmap@orbifly.com




SOURCES & CREDITS :

   NOAA